Veersedijk — PBCX — position and weather

sailwx.info

Track history (hours):
 
Tides and Currents Weather Stations Pressure Air Temp Water Temp Dewpoint Dewpoint Depression Visibility Wind Speed Wind Dir Waves Ship Positions

Veersedijk

Last reported at 2014-Sep-02 05:33 UTC. Time now 2014-Sep-03 04:59 UTC.
Position N 36°24' W 008°58'.

Length 132 m; draft 6.5 m.

Type: Ship (hazmat cat A). MMSI: 244268000.

Date/timePositionNaut miles runAvg speedWind from/ knotsBaromVisibWave heightAir tempDewpointWater temp
2014-Sep-02 05:33N 36°24' W 008°58'1111.5
2014-Sep-02 04:33N 36°31' W 009°09'1211.7
2014-Sep-02 03:30N 36°37' W 009°22'1111.6
2014-Sep-02 02:33N 36°45' W 009°31'9411.8
2014-Sep-01 18:33N 38°19' W 009°26'1212.3
2014-Sep-01 17:33N 38°31' W 009°25'1110.7
2014-Sep-01 16:33N 38°41' W 009°18'6 6.3
2014-Sep-01 15:34N 38°42' W 009°10'0 0.0
2014-Sep-01 14:33N 38°42' W 009°10'0 0.0
2014-Sep-01 13:33N 38°42' W 009°10'0 0.0
2014-Sep-01 12:33N 38°42' W 009°10'0 0.0
2014-Sep-01 11:33N 38°42' W 009°10'0 0.0
2014-Sep-01 10:33N 38°42' W 009°10'0 0.0
2014-Sep-01 09:33N 38°42' W 009°10'0 0.0
2014-Sep-01 08:33N 38°42' W 009°10'0 0.0
2014-Sep-01 07:33N 38°42' W 009°10'0 0.0
2014-Sep-01 06:33N 38°42' W 009°10'1 1.2
2014-Sep-01 05:33N 38°41' W 009°11'10 9.9
2014-Sep-01 04:33N 38°37' W 009°23'1110.6
2014-Sep-01 03:33N 38°38' W 009°36'8 8.3
2014-Sep-01 02:33N 38°44' W 009°43'1110.9
2014-Sep-01 01:34N 38°55' W 009°44'1110.3
2014-Sep-01 00:28N 39°06' W 009°44'142 6.8
2014-Aug-31 03:30N 41°23' W 008°52'175 4.3
2014-Aug-29 10:27N 38°33' W 009°47'6511.0
2014-Aug-29 04:33N 37°29' W 009°29'1211.1
2014-Aug-29 03:26N 37°17' W 009°25'1011.0
2014-Aug-29 02:31N 37°07' W 009°22'1110.5
2014-Aug-29 01:28N 36°56' W 009°19'9 9.6
2014-Aug-29 00:33N 36°49' W 009°13'9 9.3
2014-Aug-28 23:33N 36°44' W 009°04'1110.5
2014-Aug-28 22:33N 36°40' W 008°51'1110.9
2014-Aug-28 21:33N 36°36' W 008°39'1110.6
2014-Aug-28 20:33N 36°33' W 008°26'1210.6
2014-Aug-28 19:28N 36°29' W 008°13'910.4
2014-Aug-28 18:33N 36°26' W 008°02'1110.9
2014-Aug-28 17:33N 36°22' W 007°49'1111.0
2014-Aug-28 16:33N 36°19' W 007°36'1111.2
2014-Aug-28 15:33N 36°15' W 007°23'1211.5
2014-Aug-28 14:33N 36°11' W 007°09'86 2.5
2014-Aug-27 04:13N 36°03' W 005°24'182 4.8
2014-Aug-25 14:09N 33°37' W 007°36'2 0.8
2014-Aug-25 11:24N 33°39' W 007°36'  
Track history (hours):
 
Tides and Currents Weather Stations Pressure Air Temp Water Temp Dewpoint Dewpoint Depression Visibility Wind Speed Wind Dir Waves Ship Positions

Veersedijk

Last reported at 2014-Sep-02 05:33 UTC. Time now 2014-Sep-03 04:59 UTC.
Position N 36°24' W 008°58'.

Length 132 m; draft 6.5 m.

Type: Ship (hazmat cat A). MMSI: 244268000.

Date/timePositionNaut miles runAvg speedWind from/ knotsBaromVisibWave heightAir tempDewpointWater temp
2014-Sep-02 05:33N 36°24' W 008°58'1111.5
2014-Sep-02 04:33N 36°31' W 009°09'1211.7
2014-Sep-02 03:30N 36°37' W 009°22'1111.6
2014-Sep-02 02:33N 36°45' W 009°31'9411.8
2014-Sep-01 18:33N 38°19' W 009°26'1212.3
2014-Sep-01 17:33N 38°31' W 009°25'1110.7
2014-Sep-01 16:33N 38°41' W 009°18'6 6.3
2014-Sep-01 15:34N 38°42' W 009°10'0 0.0
2014-Sep-01 14:33N 38°42' W 009°10'0 0.0
2014-Sep-01 13:33N 38°42' W 009°10'0 0.0
2014-Sep-01 12:33N 38°42' W 009°10'0 0.0
2014-Sep-01 11:33N 38°42' W 009°10'0 0.0
2014-Sep-01 10:33N 38°42' W 009°10'0 0.0
2014-Sep-01 09:33N 38°42' W 009°10'0 0.0
2014-Sep-01 08:33N 38°42' W 009°10'0 0.0
2014-Sep-01 07:33N 38°42' W 009°10'0 0.0
2014-Sep-01 06:33N 38°42' W 009°10'1 1.2
2014-Sep-01 05:33N 38°41' W 009°11'10 9.9
2014-Sep-01 04:33N 38°37' W 009°23'1110.6
2014-Sep-01 03:33N 38°38' W 009°36'8 8.3
2014-Sep-01 02:33N 38°44' W 009°43'1110.9
2014-Sep-01 01:34N 38°55' W 009°44'1110.3
2014-Sep-01 00:28N 39°06' W 009°44'142 6.8
2014-Aug-31 03:30N 41°23' W 008°52'175 4.3
2014-Aug-29 10:27N 38°33' W 009°47'6511.0
2014-Aug-29 04:33N 37°29' W 009°29'1211.1
2014-Aug-29 03:26N 37°17' W 009°25'1011.0
2014-Aug-29 02:31N 37°07' W 009°22'1110.5
2014-Aug-29 01:28N 36°56' W 009°19'9 9.6
2014-Aug-29 00:33N 36°49' W 009°13'9 9.3
2014-Aug-28 23:33N 36°44' W 009°04'1110.5
2014-Aug-28 22:33N 36°40' W 008°51'1110.9
2014-Aug-28 21:33N 36°36' W 008°39'1110.6
2014-Aug-28 20:33N 36°33' W 008°26'1210.6
2014-Aug-28 19:28N 36°29' W 008°13'910.4
2014-Aug-28 18:33N 36°26' W 008°02'1110.9
2014-Aug-28 17:33N 36°22' W 007°49'1111.0
2014-Aug-28 16:33N 36°19' W 007°36'1111.2
2014-Aug-28 15:33N 36°15' W 007°23'1211.5
2014-Aug-28 14:33N 36°11' W 007°09'86 2.5
2014-Aug-27 04:13N 36°03' W 005°24'182 4.8
2014-Aug-25 14:09N 33°37' W 007°36'2 0.8
2014-Aug-25 11:24N 33°39' W 007°36'  

Dump ship's entire track history